sensor_id;sensor_type;location;lat;lon;timestamp;P1;durP1;ratioP1;P2;durP2;ratioP2
13240;SDS011;6687;47.790;7.322;2022-09-23T06:12:26;0.90;;;0.90;;
13240;SDS011;6687;47.790;7.322;2022-09-23T06:14:53;0.40;;;0.40;;
13240;SDS011;6687;47.790;7.322;2022-09-23T06:17:20;0.52;;;0.52;;
13240;SDS011;6687;47.790;7.322;2022-09-23T06:19:46;0.60;;;0.57;;
13240;SDS011;6687;47.790;7.322;2022-09-23T06:22:13;0.75;;;0.75;;
13240;SDS011;6687;47.790;7.322;2022-09-23T06:24:42;0.40;;;0.40;;
13240;SDS011;6687;47.790;7.322;2022-09-23T06:27:09;0.60;;;0.60;;
13240;SDS011;6687;47.790;7.322;2022-09-23T06:29:37;0.32;;;0.32;;
13240;SDS011;6687;47.790;7.322;2022-09-23T06:32:04;0.55;;;0.55;;
13240;SDS011;6687;47.790;7.322;2022-09-23T06:34:31;0.40;;;0.40;;
13240;SDS011;6687;47.790;7.322;2022-09-23T06:36:57;0.60;;;0.60;;
13240;SDS011;6687;47.790;7.322;2022-09-23T06:39:24;0.63;;;0.63;;
13240;SDS011;6687;47.790;7.322;2022-09-23T06:41:51;0.77;;;0.77;;
13240;SDS011;6687;47.790;7.322;2022-09-23T06:44:18;0.60;;;0.60;;
13240;SDS011;6687;47.790;7.322;2022-09-23T06:46:46;0.52;;;0.52;;
13240;SDS011;6687;47.790;7.322;2022-09-23T06:49:13;0.50;;;0.50;;
13240;SDS011;6687;47.790;7.322;2022-09-23T06:51:39;0.52;;;0.52;;
13240;SDS011;6687;47.790;7.322;2022-09-23T06:54:06;1.25;;;0.73;;
13240;SDS011;6687;47.790;7.322;2022-09-23T06:56:33;1.08;;;1.02;;
13240;SDS011;6687;47.790;7.322;2022-09-23T06:59:00;0.38;;;0.38;;
13240;SDS011;6687;47.790;7.322;2022-09-23T07:01:26;0.85;;;0.68;;
13240;SDS011;6687;47.790;7.322;2022-09-23T07:03:54;0.57;;;0.57;;
13240;SDS011;6687;47.790;7.322;2022-09-23T07:06:21;0.50;;;0.50;;
13240;SDS011;6687;47.790;7.322;2022-09-23T07:08:48;0.30;;;0.30;;
13240;SDS011;6687;47.790;7.322;2022-09-23T07:11:15;1.10;;;1.00;;
13240;SDS011;6687;47.790;7.322;2022-09-23T07:13:46;0.50;;;0.50;;
13240;SDS011;6687;47.790;7.322;2022-09-23T07:16:13;0.38;;;0.38;;
13240;SDS011;6687;47.790;7.322;2022-09-23T07:18:40;0.57;;;0.57;;
13240;SDS011;6687;47.790;7.322;2022-09-23T07:21:08;0.60;;;0.60;;
13240;SDS011;6687;47.790;7.322;2022-09-23T07:23:39;0.50;;;0.50;;
13240;SDS011;6687;47.790;7.322;2022-09-23T07:26:05;0.90;;;0.90;;
13240;SDS011;6687;47.790;7.322;2022-09-23T07:28:33;0.70;;;0.70;;
13240;SDS011;6687;47.790;7.322;2022-09-23T07:31:01;0.60;;;0.60;;
13240;SDS011;6687;47.790;7.322;2022-09-23T07:33:30;0.68;;;0.68;;
13240;SDS011;6687;47.790;7.322;2022-09-23T07:35:58;0.60;;;0.60;;
13240;SDS011;6687;47.790;7.322;2022-09-23T07:38:30;0.50;;;0.50;;
13240;SDS011;6687;47.790;7.322;2022-09-23T07:41:01;0.65;;;0.65;;
13240;SDS011;6687;47.790;7.322;2022-09-23T07:43:29;0.80;;;0.80;;
13240;SDS011;6687;47.790;7.322;2022-09-23T07:45:57;0.85;;;0.82;;
13240;SDS011;6687;47.790;7.322;2022-09-23T07:48:26;0.30;;;0.30;;
13240;SDS011;6687;47.790;7.322;2022-09-23T07:50:53;1.15;;;0.98;;
13240;SDS011;6687;47.790;7.322;2022-09-23T07:53:20;0.77;;;0.77;;
13240;SDS011;6687;47.790;7.322;2022-09-23T07:55:52;1.00;;;0.90;;
13240;SDS011;6687;47.790;7.322;2022-09-23T07:58:19;1.13;;;1.02;;
13240;SDS011;6687;47.790;7.322;2022-09-23T08:00:46;0.60;;;0.60;;
13240;SDS011;6687;47.790;7.322;2022-09-23T08:03:18;0.32;;;0.32;;
13240;SDS011;6687;47.790;7.322;2022-09-23T08:05:45;0.50;;;0.50;;
13240;SDS011;6687;47.790;7.322;2022-09-23T08:08:12;0.73;;;0.73;;
13240;SDS011;6687;47.790;7.322;2022-09-23T08:10:39;0.55;;;0.55;;
13240;SDS011;6687;47.790;7.322;2022-09-23T08:13:08;0.95;;;0.95;;
13240;SDS011;6687;47.790;7.322;2022-09-23T08:15:35;0.43;;;0.43;;
13240;SDS011;6687;47.790;7.322;2022-09-23T08:18:01;1.10;;;0.73;;
13240;SDS011;6687;47.790;7.322;2022-09-23T08:20:28;0.70;;;0.70;;
13240;SDS011;6687;47.790;7.322;2022-09-23T08:23:11;0.75;;;0.70;;
13240;SDS011;6687;47.790;7.322;2022-09-23T08:25:38;0.55;;;0.55;;
13240;SDS011;6687;47.790;7.322;2022-09-23T08:28:05;0.50;;;0.50;;
13240;SDS011;6687;47.790;7.322;2022-09-23T08:30:34;0.60;;;0.60;;
13240;SDS011;6687;47.790;7.322;2022-09-23T08:33:00;0.40;;;0.40;;
13240;SDS011;6687;47.790;7.322;2022-09-23T08:35:27;0.82;;;0.82;;
13240;SDS011;6687;47.790;7.322;2022-09-23T08:37:54;0.57;;;0.57;;
13240;SDS011;6687;47.790;7.322;2022-09-23T08:40:21;0.45;;;0.45;;
13240;SDS011;6687;47.790;7.322;2022-09-23T08:42:49;1.00;;;0.90;;
13240;SDS011;6687;47.790;7.322;2022-09-23T08:45:16;0.70;;;0.70;;
13240;SDS011;6687;47.790;7.322;2022-09-23T08:47:50;1.73;;;1.23;;
13240;SDS011;6687;47.790;7.322;2022-09-23T08:50:21;0.90;;;0.90;;
13240;SDS011;6687;47.790;7.322;2022-09-23T08:52:50;0.80;;;0.80;;
13240;SDS011;6687;47.790;7.322;2022-09-23T08:55:19;0.63;;;0.63;;
13240;SDS011;6687;47.790;7.322;2022-09-23T08:57:59;0.52;;;0.52;;
13240;SDS011;6687;47.790;7.322;2022-09-23T09:00:33;0.52;;;0.52;;
13240;SDS011;6687;47.790;7.322;2022-09-23T09:03:12;0.60;;;0.60;;
13240;SDS011;6687;47.790;7.322;2022-09-23T09:05:45;1.38;;;1.35;;
13240;SDS011;6687;47.790;7.322;2022-09-23T09:08:14;0.32;;;0.32;;
13240;SDS011;6687;47.790;7.322;2022-09-23T09:10:48;0.82;;;0.82;;
13240;SDS011;6687;47.790;7.322;2022-09-23T09:13:21;0.60;;;0.60;;
13240;SDS011;6687;47.790;7.322;2022-09-23T09:15:57;1.25;;;1.15;;
13240;SDS011;6687;47.790;7.322;2022-09-23T09:18:46;0.85;;;0.85;;
13240;SDS011;6687;47.790;7.322;2022-09-23T09:21:17;1.23;;;1.13;;
13240;SDS011;6687;47.790;7.322;2022-09-23T09:23:50;0.93;;;0.93;;
13240;SDS011;6687;47.790;7.322;2022-09-23T09:26:21;1.50;;;0.90;;
13240;SDS011;6687;47.790;7.322;2022-09-23T09:28:51;1.48;;;1.38;;
13240;SDS011;6687;47.790;7.322;2022-09-23T09:31:25;0.82;;;0.82;;
13240;SDS011;6687;47.790;7.322;2022-09-23T09:33:59;1.73;;;1.63;;
13240;SDS011;6687;47.790;7.322;2022-09-23T09:36:35;1.27;;;1.00;;
13240;SDS011;6687;47.790;7.322;2022-09-23T09:39:05;1.48;;;0.68;;
13240;SDS011;6687;47.790;7.322;2022-09-23T09:41:37;1.15;;;0.98;;
13240;SDS011;6687;47.790;7.322;2022-09-23T09:44:10;0.85;;;0.80;;
13240;SDS011;6687;47.790;7.322;2022-09-23T09:46:53;1.27;;;1.17;;
13240;SDS011;6687;47.790;7.322;2022-09-23T09:49:38;1.38;;;1.27;;
13240;SDS011;6687;47.790;7.322;2022-09-23T09:52:11;0.85;;;0.77;;
13240;SDS011;6687;47.790;7.322;2022-09-23T09:54:40;0.73;;;0.73;;
13240;SDS011;6687;47.790;7.322;2022-09-23T09:57:12;1.42;;;1.33;;
13240;SDS011;6687;47.790;7.322;2022-09-23T09:59:44;0.85;;;0.85;;
13240;SDS011;6687;47.790;7.322;2022-09-23T10:02:12;0.82;;;0.80;;
13240;SDS011;6687;47.790;7.322;2022-09-23T10:04:54;1.13;;;0.82;;
13240;SDS011;6687;47.790;7.322;2022-09-23T10:07:27;0.77;;;0.77;;
13240;SDS011;6687;47.790;7.322;2022-09-23T10:09:56;0.80;;;0.80;;
13240;SDS011;6687;47.790;7.322;2022-09-23T10:12:25;1.42;;;0.93;;
13240;SDS011;6687;47.790;7.322;2022-09-23T10:14:54;0.50;;;0.50;;
13240;SDS011;6687;47.790;7.322;2022-09-23T10:17:22;0.90;;;0.90;;
13240;SDS011;6687;47.790;7.322;2022-09-23T10:19:55;0.60;;;0.55;;
13240;SDS011;6687;47.790;7.322;2022-09-23T10:22:25;0.77;;;0.55;;
13240;SDS011;6687;47.790;7.322;2022-09-23T10:24:56;0.50;;;0.50;;
13240;SDS011;6687;47.790;7.322;2022-09-23T10:27:28;1.10;;;1.10;;
13240;SDS011;6687;47.790;7.322;2022-09-23T10:29:58;0.60;;;0.60;;
13240;SDS011;6687;47.790;7.322;2022-09-23T10:32:27;2.05;;;0.60;;
13240;SDS011;6687;47.790;7.322;2022-09-23T10:34:58;0.98;;;0.95;;
13240;SDS011;6687;47.790;7.322;2022-09-23T10:37:32;0.82;;;0.80;;
13240;SDS011;6687;47.790;7.322;2022-09-23T10:40:09;0.88;;;0.88;;
13240;SDS011;6687;47.790;7.322;2022-09-23T10:43:01;0.70;;;0.70;;
13240;SDS011;6687;47.790;7.322;2022-09-23T10:45:56;0.60;;;0.60;;
13240;SDS011;6687;47.790;7.322;2022-09-23T10:48:47;1.15;;;1.10;;
13240;SDS011;6687;47.790;7.322;2022-09-23T10:51:30;0.85;;;0.73;;
13240;SDS011;6687;47.790;7.322;2022-09-23T10:54:07;0.70;;;0.60;;
13240;SDS011;6687;47.790;7.322;2022-09-23T10:56:43;0.45;;;0.45;;
13240;SDS011;6687;47.790;7.322;2022-09-23T11:02:16;1.00;;;0.93;;
13240;SDS011;6687;47.790;7.322;2022-09-23T11:08:01;1.33;;;1.13;;
13240;SDS011;6687;47.790;7.322;2022-09-23T11:10:48;0.65;;;0.52;;
13240;SDS011;6687;47.790;7.322;2022-09-23T11:13:33;0.50;;;0.50;;
13240;SDS011;6687;47.790;7.322;2022-09-23T11:16:14;0.57;;;0.50;;
13240;SDS011;6687;47.790;7.322;2022-09-23T11:18:56;0.55;;;0.50;;
13240;SDS011;6687;47.790;7.322;2022-09-23T11:21:43;0.98;;;0.98;;
13240;SDS011;6687;47.790;7.322;2022-09-23T11:27:25;0.80;;;0.80;;
13240;SDS011;6687;47.790;7.322;2022-09-23T11:30:02;0.70;;;0.70;;
13240;SDS011;6687;47.790;7.322;2022-09-23T11:32:38;1.10;;;1.05;;
13240;SDS011;6687;47.790;7.322;2022-09-23T11:35:28;0.70;;;0.70;;
13240;SDS011;6687;47.790;7.322;2022-09-23T11:38:00;1.58;;;0.93;;
13240;SDS011;6687;47.790;7.322;2022-09-23T11:40:34;1.05;;;1.05;;
13240;SDS011;6687;47.790;7.322;2022-09-23T11:43:04;0.68;;;0.68;;
13240;SDS011;6687;47.790;7.322;2022-09-23T11:45:40;0.98;;;0.98;;
13240;SDS011;6687;47.790;7.322;2022-09-23T11:48:12;0.80;;;0.80;;
13240;SDS011;6687;47.790;7.322;2022-09-23T11:50:45;0.68;;;0.68;;
13240;SDS011;6687;47.790;7.322;2022-09-23T11:53:17;0.93;;;0.93;;
13240;SDS011;6687;47.790;7.322;2022-09-23T11:55:51;1.10;;;0.93;;
13240;SDS011;6687;47.790;7.322;2022-09-23T11:58:25;1.63;;;1.52;;
13240;SDS011;6687;47.790;7.322;2022-09-23T12:00:57;0.88;;;0.88;;
13240;SDS011;6687;47.790;7.322;2022-09-23T12:03:32;0.60;;;0.60;;
13240;SDS011;6687;47.790;7.322;2022-09-23T12:06:06;1.80;;;1.02;;
13240;SDS011;6687;47.790;7.322;2022-09-23T12:08:38;0.68;;;0.60;;
13240;SDS011;6687;47.790;7.322;2022-09-23T12:11:07;0.70;;;0.70;;
13240;SDS011;6687;47.790;7.322;2022-09-23T12:13:44;1.20;;;1.10;;
13240;SDS011;6687;47.790;7.322;2022-09-23T12:16:24;1.13;;;0.95;;
13240;SDS011;6687;47.790;7.322;2022-09-23T12:19:12;0.90;;;0.80;;
13240;SDS011;6687;47.790;7.322;2022-09-23T12:21:54;1.08;;;0.95;;
13240;SDS011;6687;47.790;7.322;2022-09-23T12:24:46;2.70;;;1.00;;
13240;SDS011;6687;47.790;7.322;2022-09-23T12:27:23;1.00;;;1.00;;
13240;SDS011;6687;47.790;7.322;2022-09-23T12:29:59;0.73;;;0.70;;
13240;SDS011;6687;47.790;7.322;2022-09-23T12:32:29;0.70;;;0.70;;
13240;SDS011;6687;47.790;7.322;2022-09-23T12:34:57;1.23;;;0.80;;
13240;SDS011;6687;47.790;7.322;2022-09-23T12:37:26;0.73;;;0.73;;
13240;SDS011;6687;47.790;7.322;2022-09-23T12:39:57;0.80;;;0.80;;
13240;SDS011;6687;47.790;7.322;2022-09-23T12:42:28;0.68;;;0.68;;
13240;SDS011;6687;47.790;7.322;2022-09-23T12:45:14;0.55;;;0.55;;
13240;SDS011;6687;47.790;7.322;2022-09-23T12:47:44;2.33;;;0.82;;
13240;SDS011;6687;47.790;7.322;2022-09-23T12:56:25;0.70;;;0.70;;
13240;SDS011;6687;47.790;7.322;2022-09-23T12:59:05;1.52;;;0.93;;
13240;SDS011;6687;47.790;7.322;2022-09-23T13:01:38;2.72;;;0.68;;
13240;SDS011;6687;47.790;7.322;2022-09-23T13:04:05;0.50;;;0.50;;
13240;SDS011;6687;47.790;7.322;2022-09-23T13:07:12;1.08;;;0.90;;
13240;SDS011;6687;47.790;7.322;2022-09-23T13:09:42;1.00;;;0.90;;
13240;SDS011;6687;47.790;7.322;2022-09-23T13:12:15;1.23;;;1.10;;
13240;SDS011;6687;47.790;7.322;2022-09-23T13:14:47;1.20;;;1.13;;
13240;SDS011;6687;47.790;7.322;2022-09-23T13:17:21;1.10;;;1.05;;
13240;SDS011;6687;47.790;7.322;2022-09-23T13:19:57;0.88;;;0.88;;
13240;SDS011;6687;47.790;7.322;2022-09-23T13:22:38;2.28;;;1.15;;
13240;SDS011;6687;47.790;7.322;2022-09-23T13:25:13;0.50;;;0.50;;
13240;SDS011;6687;47.790;7.322;2022-09-23T13:27:43;1.95;;;0.80;;
13240;SDS011;6687;47.790;7.322;2022-09-23T13:30:17;0.93;;;0.93;;
13240;SDS011;6687;47.790;7.322;2022-09-23T13:32:47;1.00;;;1.00;;
13240;SDS011;6687;47.790;7.322;2022-09-23T13:35:23;0.60;;;0.60;;
13240;SDS011;6687;47.790;7.322;2022-09-23T13:37:51;1.00;;;0.80;;
13240;SDS011;6687;47.790;7.322;2022-09-23T13:40:20;1.10;;;1.00;;
13240;SDS011;6687;47.790;7.322;2022-09-23T13:42:51;2.15;;;0.70;;
13240;SDS011;6687;47.790;7.322;2022-09-23T13:45:23;1.00;;;1.00;;
13240;SDS011;6687;47.790;7.322;2022-09-23T13:47:52;1.38;;;0.82;;
13240;SDS011;6687;47.790;7.322;2022-09-23T13:50:24;1.73;;;0.85;;
13240;SDS011;6687;47.790;7.322;2022-09-23T13:52:54;1.50;;;1.40;;
13240;SDS011;6687;47.790;7.322;2022-09-23T13:55:31;2.53;;;1.08;;
13240;SDS011;6687;47.790;7.322;2022-09-23T13:58:02;1.10;;;1.00;;
13240;SDS011;6687;47.790;7.322;2022-09-23T14:00:36;0.55;;;0.52;;
13240;SDS011;6687;47.790;7.322;2022-09-23T14:03:15;0.60;;;0.60;;
13240;SDS011;6687;47.790;7.322;2022-09-23T14:05:43;0.98;;;0.90;;
13240;SDS011;6687;47.790;7.322;2022-09-23T14:08:11;1.08;;;0.80;;
13240;SDS011;6687;47.790;7.322;2022-09-23T14:10:38;1.10;;;1.00;;
13240;SDS011;6687;47.790;7.322;2022-09-23T14:13:12;1.50;;;0.65;;
13240;SDS011;6687;47.790;7.322;2022-09-23T14:15:43;0.82;;;0.70;;
13240;SDS011;6687;47.790;7.322;2022-09-23T14:18:13;0.60;;;0.60;;
13240;SDS011;6687;47.790;7.322;2022-09-23T14:20:44;0.57;;;0.57;;
13240;SDS011;6687;47.790;7.322;2022-09-23T14:23:12;0.63;;;0.63;;
13240;SDS011;6687;47.790;7.322;2022-09-23T14:25:40;0.85;;;0.70;;
13240;SDS011;6687;47.790;7.322;2022-09-23T14:28:08;2.08;;;0.90;;
13240;SDS011;6687;47.790;7.322;2022-09-23T14:30:40;1.20;;;1.02;;
13240;SDS011;6687;47.790;7.322;2022-09-23T14:33:13;0.47;;;0.47;;
13240;SDS011;6687;47.790;7.322;2022-09-23T14:35:43;1.40;;;0.85;;
13240;SDS011;6687;47.790;7.322;2022-09-23T14:38:18;0.77;;;0.77;;
13240;SDS011;6687;47.790;7.322;2022-09-23T14:41:10;0.82;;;0.80;;
13240;SDS011;6687;47.790;7.322;2022-09-23T14:43:45;0.88;;;0.88;;
13240;SDS011;6687;47.790;7.322;2022-09-23T14:46:15;0.77;;;0.65;;
13240;SDS011;6687;47.790;7.322;2022-09-23T14:48:51;0.75;;;0.70;;
13240;SDS011;6687;47.790;7.322;2022-09-23T14:51:20;1.10;;;0.65;;
13240;SDS011;6687;47.790;7.322;2022-09-23T14:53:55;0.98;;;0.98;;
13240;SDS011;6687;47.790;7.322;2022-09-23T14:57:16;0.95;;;0.95;;
13240;SDS011;6687;47.790;7.322;2022-09-23T14:59:50;1.02;;;0.90;;
13240;SDS011;6687;47.790;7.322;2022-09-23T15:02:32;0.52;;;0.52;;
13240;SDS011;6687;47.790;7.322;2022-09-23T15:05:10;1.33;;;1.08;;
13240;SDS011;6687;47.790;7.322;2022-09-23T15:07:40;1.00;;;0.63;;
13240;SDS011;6687;47.790;7.322;2022-09-23T15:10:12;0.95;;;0.80;;
13240;SDS011;6687;47.790;7.322;2022-09-23T15:12:44;0.85;;;0.85;;
13240;SDS011;6687;47.790;7.322;2022-09-23T15:15:14;0.80;;;0.80;;
13240;SDS011;6687;47.790;7.322;2022-09-23T15:17:42;0.50;;;0.50;;
13240;SDS011;6687;47.790;7.322;2022-09-23T15:20:17;1.05;;;1.05;;
13240;SDS011;6687;47.790;7.322;2022-09-23T15:22:48;0.98;;;0.93;;
13240;SDS011;6687;47.790;7.322;2022-09-23T15:25:18;0.75;;;0.70;;
13240;SDS011;6687;47.790;7.322;2022-09-23T15:27:54;1.70;;;1.60;;
13240;SDS011;6687;47.790;7.322;2022-09-23T15:30:23;1.27;;;1.27;;
13240;SDS011;6687;47.790;7.322;2022-09-23T15:32:51;0.82;;;0.82;;
13240;SDS011;6687;47.790;7.322;2022-09-23T15:35:20;0.70;;;0.70;;
13240;SDS011;6687;47.790;7.322;2022-09-23T15:37:49;1.23;;;0.95;;
13240;SDS011;6687;47.790;7.322;2022-09-23T15:40:19;3.33;;;0.63;;
13240;SDS011;6687;47.790;7.322;2022-09-23T15:42:47;0.75;;;0.73;;
13240;SDS011;6687;47.790;7.322;2022-09-23T15:45:16;0.90;;;0.90;;
13240;SDS011;6687;47.790;7.322;2022-09-23T15:47:45;1.65;;;0.88;;
13240;SDS011;6687;47.790;7.322;2022-09-23T15:50:13;0.73;;;0.68;;
13240;SDS011;6687;47.790;7.322;2022-09-23T15:52:41;1.65;;;0.80;;
13240;SDS011;6687;47.790;7.322;2022-09-23T15:55:13;2.28;;;0.70;;
13240;SDS011;6687;47.790;7.322;2022-09-23T15:57:41;1.25;;;0.80;;
13240;SDS011;6687;47.790;7.322;2022-09-23T16:00:08;0.70;;;0.70;;
13240;SDS011;6687;47.790;7.322;2022-09-23T16:02:37;0.80;;;0.80;;
13240;SDS011;6687;47.790;7.322;2022-09-23T16:05:04;0.93;;;0.93;;
13240;SDS011;6687;47.790;7.322;2022-09-23T16:07:31;2.78;;;1.10;;
13240;SDS011;6687;47.790;7.322;2022-09-23T16:10:01;0.52;;;0.52;;
13240;SDS011;6687;47.790;7.322;2022-09-23T16:12:28;0.65;;;0.65;;
13240;SDS011;6687;47.790;7.322;2022-09-23T16:14:55;0.60;;;0.60;;
13240;SDS011;6687;47.790;7.322;2022-09-23T16:17:21;0.65;;;0.65;;
13240;SDS011;6687;47.790;7.322;2022-09-23T16:19:49;0.85;;;0.85;;
13240;SDS011;6687;47.790;7.322;2022-09-23T16:22:15;1.67;;;0.60;;
13240;SDS011;6687;47.790;7.322;2022-09-23T16:24:42;1.23;;;0.70;;
13240;SDS011;6687;47.790;7.322;2022-09-23T16:27:10;1.08;;;0.68;;
13240;SDS011;6687;47.790;7.322;2022-09-23T16:29:42;0.77;;;0.77;;
13240;SDS011;6687;47.790;7.322;2022-09-23T16:32:08;0.60;;;0.60;;
13240;SDS011;6687;47.790;7.322;2022-09-23T16:34:35;0.85;;;0.85;;
13240;SDS011;6687;47.790;7.322;2022-09-23T16:37:01;0.90;;;0.90;;
13240;SDS011;6687;47.790;7.322;2022-09-23T16:39:29;0.68;;;0.68;;
13240;SDS011;6687;47.790;7.322;2022-09-23T16:41:56;0.95;;;0.88;;
13240;SDS011;6687;47.790;7.322;2022-09-23T16:44:24;0.70;;;0.70;;
13240;SDS011;6687;47.790;7.322;2022-09-23T16:46:51;1.27;;;0.60;;
13240;SDS011;6687;47.790;7.322;2022-09-23T16:49:17;0.77;;;0.77;;
13240;SDS011;6687;47.790;7.322;2022-09-23T16:51:45;1.55;;;0.75;;
13240;SDS011;6687;47.790;7.322;2022-09-23T16:54:11;1.20;;;1.10;;
13240;SDS011;6687;47.790;7.322;2022-09-23T16:56:39;1.10;;;0.90;;
13240;SDS011;6687;47.790;7.322;2022-09-23T16:59:09;0.82;;;0.82;;
13240;SDS011;6687;47.790;7.322;2022-09-23T17:01:37;0.73;;;0.68;;
13240;SDS011;6687;47.790;7.322;2022-09-23T17:04:21;1.08;;;0.98;;
13240;SDS011;6687;47.790;7.322;2022-09-23T17:06:48;0.90;;;0.90;;
13240;SDS011;6687;47.790;7.322;2022-09-23T17:09:17;1.80;;;1.33;;
13240;SDS011;6687;47.790;7.322;2022-09-23T17:11:46;0.93;;;0.93;;
13240;SDS011;6687;47.790;7.322;2022-09-23T17:14:17;1.00;;;0.80;;
13240;SDS011;6687;47.790;7.322;2022-09-23T17:16:45;1.52;;;1.08;;
13240;SDS011;6687;47.790;7.322;2022-09-23T17:19:12;1.15;;;1.10;;
13240;SDS011;6687;47.790;7.322;2022-09-23T17:21:39;1.60;;;1.23;;
13240;SDS011;6687;47.790;7.322;2022-09-23T17:24:06;1.55;;;1.45;;
13240;SDS011;6687;47.790;7.322;2022-09-23T17:26:34;1.45;;;1.27;;
13240;SDS011;6687;47.790;7.322;2022-09-23T17:29:02;1.10;;;1.00;;
13240;SDS011;6687;47.790;7.322;2022-09-23T17:31:29;1.30;;;1.20;;
13240;SDS011;6687;47.790;7.322;2022-09-23T17:33:57;0.98;;;0.90;;
13240;SDS011;6687;47.790;7.322;2022-09-23T17:36:24;2.47;;;1.10;;
13240;SDS011;6687;47.790;7.322;2022-09-23T17:38:52;1.52;;;1.10;;
13240;SDS011;6687;47.790;7.322;2022-09-23T17:41:19;2.00;;;1.23;;
13240;SDS011;6687;47.790;7.322;2022-09-23T17:43:46;1.98;;;1.08;;
13240;SDS011;6687;47.790;7.322;2022-09-23T17:46:18;1.30;;;1.20;;
13240;SDS011;6687;47.790;7.322;2022-09-23T17:48:45;1.60;;;1.20;;
13240;SDS011;6687;47.790;7.322;2022-09-23T17:51:13;1.70;;;1.60;;
13240;SDS011;6687;47.790;7.322;2022-09-23T17:53:43;1.60;;;1.50;;
13240;SDS011;6687;47.790;7.322;2022-09-23T17:56:13;1.50;;;1.40;;
13240;SDS011;6687;47.790;7.322;2022-09-23T17:58:41;1.88;;;1.30;;
13240;SDS011;6687;47.790;7.322;2022-09-23T18:01:09;1.88;;;1.38;;
13240;SDS011;6687;47.790;7.322;2022-09-23T18:03:36;1.63;;;1.52;;
13240;SDS011;6687;47.790;7.322;2022-09-23T18:06:07;2.58;;;1.77;;
13240;SDS011;6687;47.790;7.322;2022-09-23T18:08:37;3.13;;;2.17;;
13240;SDS011;6687;47.790;7.322;2022-09-23T18:11:11;1.75;;;1.65;;
13240;SDS011;6687;47.790;7.322;2022-09-23T18:13:39;1.75;;;1.65;;
13240;SDS011;6687;47.790;7.322;2022-09-23T18:16:06;2.60;;;1.65;;
13240;SDS011;6687;47.790;7.322;2022-09-23T18:18:33;3.20;;;1.67;;
13240;SDS011;6687;47.790;7.322;2022-09-23T18:20:59;3.65;;;2.25;;
13240;SDS011;6687;47.790;7.322;2022-09-23T18:23:27;2.28;;;1.70;;
13240;SDS011;6687;47.790;7.322;2022-09-23T18:25:55;5.40;;;2.40;;
13240;SDS011;6687;47.790;7.322;2022-09-23T18:28:22;3.30;;;2.08;;
13240;SDS011;6687;47.790;7.322;2022-09-23T18:30:52;3.55;;;1.90;;
13240;SDS011;6687;47.790;7.322;2022-09-23T18:33:19;1.58;;;1.48;;
13240;SDS011;6687;47.790;7.322;2022-09-23T18:35:46;2.20;;;1.52;;
13240;SDS011;6687;47.790;7.322;2022-09-23T18:38:13;2.95;;;1.50;;
13240;SDS011;6687;47.790;7.322;2022-09-23T18:40:47;2.80;;;1.77;;
13240;SDS011;6687;47.790;7.322;2022-09-23T18:43:16;2.42;;;1.50;;
13240;SDS011;6687;47.790;7.322;2022-09-23T18:45:43;2.30;;;1.48;;
13240;SDS011;6687;47.790;7.322;2022-09-23T18:48:19;1.73;;;1.30;;
13240;SDS011;6687;47.790;7.322;2022-09-23T18:51:05;1.98;;;1.25;;
13240;SDS011;6687;47.790;7.322;2022-09-23T18:53:32;1.08;;;0.98;;
13240;SDS011;6687;47.790;7.322;2022-09-23T18:56:02;2.17;;;1.00;;
13240;SDS011;6687;47.790;7.322;2022-09-23T18:58:31;1.65;;;1.35;;
13240;SDS011;6687;47.790;7.322;2022-09-23T19:01:01;2.08;;;1.88;;
13240;SDS011;6687;47.790;7.322;2022-09-23T19:03:28;1.48;;;1.17;;
13240;SDS011;6687;47.790;7.322;2022-09-23T19:05:59;2.00;;;1.50;;
13240;SDS011;6687;47.790;7.322;2022-09-23T19:08:27;2.08;;;1.33;;
13240;SDS011;6687;47.790;7.322;2022-09-23T19:10:53;1.38;;;1.27;;
13240;SDS011;6687;47.790;7.322;2022-09-23T19:13:20;2.88;;;1.60;;
13240;SDS011;6687;47.790;7.322;2022-09-23T19:15:49;1.40;;;1.30;;
13240;SDS011;6687;47.790;7.322;2022-09-23T19:18:16;1.30;;;1.20;;
13240;SDS011;6687;47.790;7.322;2022-09-23T19:20:47;1.05;;;0.98;;
13240;SDS011;6687;47.790;7.322;2022-09-23T19:23:15;2.97;;;1.45;;
13240;SDS011;6687;47.790;7.322;2022-09-23T19:25:41;1.45;;;1.20;;
13240;SDS011;6687;47.790;7.322;2022-09-23T19:28:08;2.85;;;1.35;;
13240;SDS011;6687;47.790;7.322;2022-09-23T19:30:35;2.60;;;1.70;;
13240;SDS011;6687;47.790;7.322;2022-09-23T19:33:04;1.20;;;1.15;;
13240;SDS011;6687;47.790;7.322;2022-09-23T19:35:33;1.17;;;1.08;;
13240;SDS011;6687;47.790;7.322;2022-09-23T19:38:00;1.52;;;1.38;;
13240;SDS011;6687;47.790;7.322;2022-09-23T19:40:26;0.98;;;0.93;;
13240;SDS011;6687;47.790;7.322;2022-09-23T19:42:56;2.33;;;1.40;;
13240;SDS011;6687;47.790;7.322;2022-09-23T19:45:23;1.40;;;1.30;;
13240;SDS011;6687;47.790;7.322;2022-09-23T19:47:52;1.33;;;1.02;;
13240;SDS011;6687;47.790;7.322;2022-09-23T19:50:21;1.98;;;1.05;;
13240;SDS011;6687;47.790;7.322;2022-09-23T19:52:48;1.25;;;1.00;;
13240;SDS011;6687;47.790;7.322;2022-09-23T19:55:16;1.02;;;0.98;;
13240;SDS011;6687;47.790;7.322;2022-09-23T19:57:44;1.27;;;1.17;;
13240;SDS011;6687;47.790;7.322;2022-09-23T20:00:11;1.13;;;1.10;;
13240;SDS011;6687;47.790;7.322;2022-09-23T20:02:39;1.13;;;1.02;;
13240;SDS011;6687;47.790;7.322;2022-09-23T20:05:06;1.17;;;1.08;;
13240;SDS011;6687;47.790;7.322;2022-09-23T20:07:37;1.15;;;1.15;;
13240;SDS011;6687;47.790;7.322;2022-09-23T20:10:05;2.20;;;2.00;;
13240;SDS011;6687;47.790;7.322;2022-09-23T20:12:33;2.58;;;2.17;;
13240;SDS011;6687;47.790;7.322;2022-09-23T20:15:01;2.10;;;1.90;;
13240;SDS011;6687;47.790;7.322;2022-09-23T20:17:28;1.75;;;1.50;;
13240;SDS011;6687;47.790;7.322;2022-09-23T20:19:56;1.67;;;1.17;;
13240;SDS011;6687;47.790;7.322;2022-09-23T20:22:23;1.48;;;1.33;;
13240;SDS011;6687;47.790;7.322;2022-09-23T20:24:53;2.10;;;1.10;;
13240;SDS011;6687;47.790;7.322;2022-09-23T20:27:20;1.67;;;1.58;;
13240;SDS011;6687;47.790;7.322;2022-09-23T20:29:46;1.38;;;1.27;;
13240;SDS011;6687;47.790;7.322;2022-09-23T20:32:14;1.35;;;1.25;;
13240;SDS011;6687;47.790;7.322;2022-09-23T20:34:41;1.58;;;1.20;;
13240;SDS011;6687;47.790;7.322;2022-09-23T20:37:10;1.98;;;1.25;;
13240;SDS011;6687;47.790;7.322;2022-09-23T20:39:41;2.20;;;1.10;;
13240;SDS011;6687;47.790;7.322;2022-09-23T20:42:10;1.80;;;1.25;;
13240;SDS011;6687;47.790;7.322;2022-09-23T20:44:37;1.92;;;1.33;;
13240;SDS011;6687;47.790;7.322;2022-09-23T20:47:04;1.42;;;1.33;;
13240;SDS011;6687;47.790;7.322;2022-09-23T20:49:31;1.73;;;1.23;;
13240;SDS011;6687;47.790;7.322;2022-09-23T20:51:58;1.77;;;1.35;;
13240;SDS011;6687;47.790;7.322;2022-09-23T20:54:26;1.63;;;1.27;;
13240;SDS011;6687;47.790;7.322;2022-09-23T20:56:53;1.60;;;1.38;;
13240;SDS011;6687;47.790;7.322;2022-09-23T20:59:22;2.70;;;1.23;;
13240;SDS011;6687;47.790;7.322;2022-09-23T21:01:51;2.15;;;1.20;;
13240;SDS011;6687;47.790;7.322;2022-09-23T21:04:19;1.70;;;1.20;;
13240;SDS011;6687;47.790;7.322;2022-09-23T21:06:46;1.73;;;1.40;;
13240;SDS011;6687;47.790;7.322;2022-09-23T21:09:13;1.58;;;1.20;;
13240;SDS011;6687;47.790;7.322;2022-09-23T21:11:40;1.33;;;1.20;;
13240;SDS011;6687;47.790;7.322;2022-09-23T21:14:07;1.33;;;1.23;;
13240;SDS011;6687;47.790;7.322;2022-09-23T21:16:35;1.63;;;1.20;;
13240;SDS011;6687;47.790;7.322;2022-09-23T21:19:01;1.10;;;1.00;;
13240;SDS011;6687;47.790;7.322;2022-09-23T21:21:28;1.52;;;1.42;;
13240;SDS011;6687;47.790;7.322;2022-09-23T21:23:56;1.23;;;1.13;;
13240;SDS011;6687;47.790;7.322;2022-09-23T21:26:24;1.08;;;1.02;;
13240;SDS011;6687;47.790;7.322;2022-09-23T21:28:51;1.50;;;1.30;;
13240;SDS011;6687;47.790;7.322;2022-09-23T21:31:22;1.65;;;1.25;;
13240;SDS011;6687;47.790;7.322;2022-09-23T21:33:52;2.08;;;1.40;;
13240;SDS011;6687;47.790;7.322;2022-09-23T21:36:19;1.45;;;1.35;;
13240;SDS011;6687;47.790;7.322;2022-09-23T21:38:47;1.42;;;1.25;;
13240;SDS011;6687;47.790;7.322;2022-09-23T21:41:14;0.80;;;0.80;;
13240;SDS011;6687;47.790;7.322;2022-09-23T21:43:41;1.30;;;1.17;;
13240;SDS011;6687;47.790;7.322;2022-09-23T21:46:08;1.90;;;1.10;;
13240;SDS011;6687;47.790;7.322;2022-09-23T21:48:37;1.75;;;1.10;;